createdAt,value
2018-08-18T00:00:39.557Z,3.33
2018-08-18T00:05:44.495Z,3.30
2018-08-18T00:10:49.454Z,3.67
2018-08-18T00:15:54.683Z,3.50
2018-08-18T00:20:59.600Z,3.27
2018-08-18T00:26:04.524Z,4.00
2018-08-18T00:31:09.520Z,2.93
2018-08-18T00:36:14.402Z,3.57
2018-08-18T00:41:19.384Z,3.70
2018-08-18T00:46:26.088Z,3.77
2018-08-18T00:51:37.001Z,3.87
2018-08-18T00:56:43.034Z,3.60
2018-08-18T01:01:47.905Z,3.97
2018-08-18T01:06:52.785Z,3.47
2018-08-18T01:11:57.744Z,3.47
2018-08-18T01:17:03.153Z,4.20
2018-08-18T01:22:10.588Z,3.50
2018-08-18T01:27:15.561Z,3.67
2018-08-18T01:32:20.372Z,3.90
2018-08-18T01:37:25.352Z,3.60
2018-08-18T01:42:32.891Z,3.90
2018-08-18T01:47:37.675Z,3.53
2018-08-18T01:52:42.802Z,3.80
2018-08-18T01:57:48.606Z,3.63
2018-08-18T02:02:53.484Z,3.60
2018-08-18T02:07:58.276Z,3.83
2018-08-18T02:13:05.231Z,3.87
2018-08-18T02:18:10.247Z,4.40
2018-08-18T02:23:15.055Z,4.17
2018-08-18T02:28:29.938Z,4.33
2018-08-18T02:33:34.761Z,3.90
2018-08-18T02:38:43.541Z,4.13
2018-08-18T02:43:48.458Z,3.90
2018-08-18T02:48:53.444Z,3.90
2018-08-18T02:53:58.306Z,4.23
2018-08-18T02:59:04.287Z,3.90
2018-08-18T03:04:15.437Z,4.53
2018-08-18T03:09:20.553Z,4.00
2018-08-18T03:14:25.450Z,4.50
2018-08-18T03:19:30.416Z,4.23
2018-08-18T03:24:35.293Z,4.50
2018-08-18T03:29:45.077Z,4.53
2018-08-18T03:34:49.983Z,4.47
2018-08-18T03:39:54.966Z,4.30
2018-08-18T03:44:59.833Z,4.40
2018-08-18T03:50:05.319Z,4.10
2018-08-18T03:55:10.137Z,4.20
2018-08-18T04:00:16.075Z,4.37
2018-08-18T04:05:20.955Z,4.53
2018-08-18T04:12:34.425Z,4.47
2018-08-18T04:17:32.310Z,4.40
2018-08-18T04:22:27.258Z,5.00
2018-08-18T04:27:37.193Z,4.83
2018-08-18T04:32:34.021Z,4.60
2018-08-18T04:37:28.913Z,5.17
2018-08-18T04:42:23.809Z,4.60
2018-08-18T04:47:30.391Z,5.10
2018-08-18T04:52:25.217Z,4.37
2018-08-18T04:57:20.049Z,4.40
2018-08-18T05:02:15.392Z,4.00
2018-08-18T05:07:10.377Z,3.83
2018-08-18T05:12:05.286Z,3.90
2018-08-18T05:17:01.024Z,3.90
2018-08-18T05:21:55.881Z,4.20
2018-08-18T05:26:51.760Z,3.50
2018-08-18T05:31:46.748Z,3.50
2018-08-18T05:36:41.863Z,3.73
2018-08-18T05:41:36.882Z,3.83
2018-08-18T05:46:32.230Z,4.10
2018-08-18T05:51:27.182Z,3.70
2018-08-18T05:56:21.956Z,4.00
2018-08-18T06:01:35.229Z,3.93
2018-08-18T06:06:30.202Z,3.47
2018-08-18T06:11:25.014Z,4.20
2018-08-18T06:16:19.911Z,4.13
2018-08-18T06:21:14.737Z,3.97
2018-08-18T06:26:09.823Z,4.10
2018-08-18T06:31:05.149Z,4.40
2018-08-18T06:36:00.040Z,3.90
2018-08-18T06:41:00.984Z,3.73
2018-08-18T06:45:56.052Z,4.70
2018-08-18T06:50:51.019Z,4.37
2018-08-18T06:55:45.971Z,4.60
2018-08-18T07:00:40.944Z,3.97
2018-08-18T07:05:36.059Z,3.77
2018-08-18T07:10:33.484Z,4.13
2018-08-18T07:15:30.281Z,3.70
2018-08-18T07:20:25.244Z,3.40
2018-08-18T07:25:20.309Z,3.37
2018-08-18T07:30:15.873Z,3.60
2018-08-18T07:35:10.849Z,3.90
2018-08-18T07:40:07.858Z,4.03
2018-08-18T07:45:02.946Z,3.70
2018-08-18T07:49:57.825Z,3.57
2018-08-18T07:54:52.784Z,3.93
2018-08-18T07:59:47.744Z,4.23
2018-08-18T08:04:42.665Z,3.50
2018-08-18T08:09:37.633Z,4.27
2018-08-18T08:14:32.608Z,4.13
2018-08-18T08:19:27.603Z,4.10
2018-08-18T08:24:23.175Z,4.27
2018-08-18T08:29:18.253Z,3.50
2018-08-18T08:34:13.100Z,3.80
2018-08-18T08:39:08.018Z,3.97
2018-08-18T08:44:03.016Z,3.60
2018-08-18T08:49:01.051Z,3.97
2018-08-18T08:53:58.477Z,3.50
2018-08-18T08:58:53.602Z,4.03
2018-08-18T09:03:48.737Z,3.90
2018-08-18T09:08:45.874Z,3.70
2018-08-18T09:14:01.097Z,3.47
2018-08-18T09:18:56.430Z,3.77
2018-08-18T09:23:51.246Z,3.47
2018-08-18T09:28:46.083Z,3.90
2018-08-18T09:33:41.134Z,4.13
2018-08-18T09:38:36.096Z,3.70
2018-08-18T09:43:31.014Z,3.63
2018-08-18T09:48:26.744Z,3.47
2018-08-18T09:53:21.805Z,3.30
2018-08-18T09:58:16.641Z,3.53
2018-08-18T10:03:12.098Z,3.93
2018-08-18T10:08:07.815Z,3.97
2018-08-18T10:13:02.800Z,3.37
2018-08-18T10:17:57.843Z,3.23
2018-08-18T10:22:52.757Z,4.30
2018-08-18T10:27:49.530Z,3.67
2018-08-18T10:32:49.498Z,3.87
2018-08-18T10:37:44.574Z,3.77
2018-08-18T10:42:39.496Z,3.67
2018-08-18T10:47:34.310Z,3.83
2018-08-18T10:52:45.995Z,3.60
2018-08-18T10:57:57.844Z,3.73
2018-08-18T11:02:54.791Z,3.60
2018-08-18T11:07:56.372Z,3.87
2018-08-18T11:12:51.300Z,3.47
2018-08-18T11:17:46.144Z,3.20
2018-08-18T11:23:13.668Z,3.30
2018-08-18T11:28:10.214Z,3.43
2018-08-18T11:33:05.360Z,3.20
2018-08-18T11:38:07.612Z,3.33
2018-08-18T11:43:05.473Z,3.60
2018-08-18T11:48:18.238Z,3.83
2018-08-18T11:53:13.185Z,3.83
2018-08-18T11:58:09.646Z,3.70
2018-08-18T12:03:10.037Z,3.70
2018-08-18T12:08:04.992Z,3.70
2018-08-18T12:12:59.864Z,3.83
2018-08-18T12:17:58.917Z,3.60
2018-08-18T12:22:55.548Z,3.73
2018-08-18T12:27:50.700Z,3.50
2018-08-18T12:32:45.541Z,3.67
2018-08-18T12:37:40.591Z,3.70
2018-08-18T12:42:35.445Z,3.97
2018-08-18T12:47:30.495Z,4.33
2018-08-18T12:52:25.573Z,3.97
2018-08-18T12:57:38.352Z,4.07
2018-08-18T13:02:44.683Z,3.37
2018-08-18T13:07:44.650Z,3.53
2018-08-18T13:12:39.496Z,3.70
2018-08-18T13:17:34.385Z,3.77
2018-08-18T13:22:29.244Z,3.67
2018-08-18T13:27:24.127Z,3.70
2018-08-18T13:32:18.923Z,3.97
2018-08-18T13:37:13.893Z,3.77
2018-08-18T13:42:24.229Z,3.43
2018-08-18T13:47:19.074Z,3.30
2018-08-18T13:52:13.923Z,3.50
2018-08-18T13:57:09.645Z,3.47
2018-08-18T14:02:04.619Z,3.43
2018-08-18T14:07:01.151Z,4.00
2018-08-18T14:12:02.531Z,3.57
2018-08-18T14:16:57.419Z,4.03
2018-08-18T14:22:10.941Z,3.63
2018-08-18T14:27:14.562Z,3.77
2018-08-18T14:32:18.544Z,3.87
2018-08-18T14:37:14.159Z,3.60
2018-08-18T14:42:09.471Z,3.90
2018-08-18T14:47:04.398Z,3.93
2018-08-18T14:51:59.405Z,4.00
2018-08-18T14:56:55.068Z,4.13
2018-08-18T15:01:49.986Z,4.30
2018-08-18T15:06:44.885Z,3.70
2018-08-18T15:11:39.707Z,3.60
2018-08-18T15:16:34.499Z,3.53
2018-08-18T15:21:29.415Z,3.80
2018-08-18T15:26:24.333Z,3.40
2018-08-18T15:31:19.267Z,3.50
2018-08-18T15:36:32.125Z,3.80
2018-08-18T15:41:27.225Z,3.80
2018-08-18T15:46:23.552Z,3.87
2018-08-18T15:51:18.518Z,3.40
2018-08-18T15:56:13.382Z,3.77
2018-08-18T16:01:13.806Z,3.60
2018-08-18T16:06:08.852Z,3.87
2018-08-18T16:11:03.743Z,3.43
2018-08-18T16:15:58.617Z,3.10
2018-08-18T16:20:53.531Z,3.50
2018-08-18T16:25:48.402Z,3.60
2018-08-18T16:30:43.180Z,3.23
2018-08-18T16:35:40.088Z,3.20
2018-08-18T16:40:35.474Z,3.30
2018-08-18T16:45:30.350Z,3.17
2018-08-18T16:50:25.206Z,3.60
2018-08-18T16:55:20.033Z,3.47
2018-08-18T17:00:14.986Z,3.53
2018-08-18T17:05:10.686Z,3.70
2018-08-18T17:10:05.566Z,3.80
2018-08-18T17:15:00.477Z,3.17
2018-08-18T17:19:55.367Z,3.80
2018-08-18T17:24:50.267Z,3.30
2018-08-18T17:29:47.795Z,3.73
2018-08-18T17:34:42.700Z,3.50
2018-08-18T17:39:38.055Z,3.27
2018-08-18T17:44:33.040Z,3.40
2018-08-18T17:49:28.401Z,3.37
2018-08-18T17:54:23.267Z,3.40
2018-08-18T17:59:18.203Z,7.43
2018-08-18T18:04:13.241Z,3.20
2018-08-18T18:09:08.093Z,3.67
2018-08-18T18:14:03.051Z,4.10
2018-08-18T18:18:59.928Z,3.47
2018-08-18T18:23:54.844Z,3.37
2018-08-18T18:28:50.101Z,3.60
2018-08-18T18:33:49.041Z,3.50
2018-08-18T18:38:56.514Z,3.40
2018-08-18T18:44:02.048Z,3.20
2018-08-18T18:48:57.755Z,3.70
2018-08-18T18:53:53.758Z,3.70
2018-08-18T18:58:48.748Z,3.93
2018-08-18T19:03:43.724Z,3.50
2018-08-18T19:08:57.052Z,3.60
2018-08-18T19:13:52.149Z,3.70
2018-08-18T19:18:47.024Z,3.37
2018-08-18T19:23:41.817Z,3.30
2018-08-18T19:28:36.723Z,3.83
2018-08-18T19:33:31.744Z,4.07
2018-08-18T19:38:26.745Z,3.67
2018-08-18T19:43:24.026Z,3.50
2018-08-18T19:48:21.145Z,3.70
2018-08-18T19:53:16.141Z,3.80
2018-08-18T19:58:11.715Z,4.10
2018-08-18T20:03:08.550Z,3.27
2018-08-18T20:08:03.487Z,3.50
2018-08-18T20:12:58.516Z,3.40
2018-08-18T20:17:53.393Z,3.50
2018-08-18T20:22:48.825Z,4.03
2018-08-18T20:27:43.773Z,3.77
2018-08-18T20:32:38.686Z,3.57
2018-08-18T20:37:33.589Z,3.27
2018-08-18T20:42:33.749Z,3.20
2018-08-18T20:47:31.209Z,3.17
2018-08-18T20:52:26.185Z,3.20
2018-08-18T20:57:21.461Z,3.13
2018-08-18T21:02:16.605Z,2.90
2018-08-18T21:07:11.523Z,2.80
2018-08-18T21:12:06.494Z,2.70
2018-08-18T21:17:01.343Z,2.30
2018-08-18T21:21:57.270Z,2.70
2018-08-18T21:26:52.498Z,3.00
2018-08-18T21:31:51.339Z,3.60
2018-08-18T21:36:46.204Z,3.47
2018-08-18T21:41:44.620Z,2.93
2018-08-18T21:46:39.994Z,2.80
2018-08-18T21:51:34.990Z,3.40
2018-08-18T21:56:38.625Z,3.10
2018-08-18T22:01:35.119Z,2.80
2018-08-18T22:06:30.127Z,3.10
2018-08-18T22:11:25.021Z,2.73
2018-08-18T22:16:20.179Z,2.80
2018-08-18T22:21:17.860Z,2.43
2018-08-18T22:26:20.539Z,2.73
2018-08-18T22:31:15.354Z,2.40
2018-08-18T22:36:10.296Z,2.93
2018-08-18T22:41:06.801Z,2.30
2018-08-18T22:46:01.701Z,2.83
2018-08-18T22:50:56.487Z,2.40
2018-08-18T22:55:51.273Z,2.50
2018-08-18T23:00:49.480Z,2.40
2018-08-18T23:05:44.395Z,2.53
2018-08-18T23:10:39.411Z,2.57
2018-08-18T23:15:34.254Z,3.10
2018-08-18T23:20:29.242Z,2.50
2018-08-18T23:25:25.779Z,2.20
2018-08-18T23:30:24.363Z,2.47
2018-08-18T23:35:19.224Z,2.60
2018-08-18T23:40:14.075Z,2.87
2018-08-18T23:45:09.022Z,2.67
2018-08-18T23:50:03.894Z,2.30
2018-08-18T23:54:58.804Z,2.60
2018-08-18T23:59:53.764Z,2.43
